createdAt,value
2022-12-09T00:00:16.315Z,0.84
2022-12-09T00:01:16.225Z,0.81
2022-12-09T00:02:16.565Z,0.77
2022-12-09T00:03:20.078Z,0.77
2022-12-09T00:04:16.248Z,0.76
2022-12-09T00:05:16.133Z,0.76
2022-12-09T00:06:16.040Z,0.74
2022-12-09T00:07:16.138Z,0.74
2022-12-09T00:08:16.363Z,0.73
2022-12-09T00:09:16.171Z,0.73
2022-12-09T00:10:16.069Z,0.74
2022-12-09T00:11:16.017Z,0.73
2022-12-09T00:12:16.063Z,0.74
2022-12-09T00:13:16.036Z,0.74
2022-12-09T00:14:16.157Z,0.74
2022-12-09T00:15:15.970Z,0.73
2022-12-09T00:16:16.141Z,0.74
2022-12-09T00:17:16.153Z,0.73
2022-12-09T00:18:15.917Z,0.71
2022-12-09T00:19:15.954Z,0.73
2022-12-09T00:20:16.064Z,0.73
2022-12-09T00:21:16.007Z,0.71
2022-12-09T00:22:16.068Z,0.70
2022-12-09T00:23:15.869Z,0.67
2022-12-09T00:24:16.132Z,0.67
2022-12-09T00:25:16.095Z,0.67
2022-12-09T00:26:15.919Z,0.67
2022-12-09T00:27:15.861Z,0.67
2022-12-09T00:28:15.906Z,0.68
2022-12-09T00:29:15.892Z,0.71
2022-12-09T00:30:16.107Z,0.73
2022-12-09T00:31:15.899Z,0.74
2022-12-09T00:32:16.083Z,0.74
2022-12-09T00:33:15.998Z,0.76
2022-12-09T00:34:15.766Z,0.77
2022-12-09T00:35:15.764Z,0.78
2022-12-09T00:36:16.016Z,0.77
2022-12-09T00:37:15.737Z,0.77
2022-12-09T00:38:15.783Z,0.78
2022-12-09T00:39:15.727Z,0.81
2022-12-09T00:40:15.663Z,0.82
2022-12-09T00:41:15.663Z,0.84
2022-12-09T00:42:15.909Z,0.86
2022-12-09T00:43:15.857Z,0.86
2022-12-09T00:44:15.649Z,0.88
2022-12-09T00:45:15.622Z,0.89
2022-12-09T00:46:15.656Z,0.88
2022-12-09T00:47:15.687Z,0.88
2022-12-09T00:48:15.718Z,0.88
2022-12-09T00:49:15.805Z,0.88
2022-12-09T00:50:15.567Z,0.88
2022-12-09T00:51:15.596Z,0.85
2022-12-09T00:52:15.649Z,0.86
2022-12-09T00:53:15.540Z,0.85
2022-12-09T00:54:15.589Z,0.85
2022-12-09T00:55:15.620Z,0.85
2022-12-09T00:56:15.491Z,0.85
2022-12-09T00:57:15.637Z,0.84
2022-12-09T00:58:15.479Z,0.82
2022-12-09T00:59:15.503Z,0.81
2022-12-09T01:00:15.453Z,0.77
2022-12-09T01:01:15.717Z,0.76
2022-12-09T01:02:15.678Z,0.74
2022-12-09T01:03:15.583Z,0.74
2022-12-09T01:04:15.527Z,0.76
2022-12-09T01:05:15.612Z,0.77
2022-12-09T01:06:15.409Z,0.77
2022-12-09T01:07:15.629Z,0.77
2022-12-09T01:08:15.689Z,0.77
2022-12-09T01:09:15.585Z,0.78
2022-12-09T01:10:15.499Z,0.78
2022-12-09T01:11:15.340Z,0.78
2022-12-09T01:12:15.313Z,0.78
2022-12-09T01:13:15.392Z,0.78
2022-12-09T01:14:15.406Z,0.77
2022-12-09T01:15:15.459Z,0.78
2022-12-09T01:16:15.356Z,0.77
2022-12-09T01:17:15.612Z,0.77
2022-12-09T01:18:15.235Z,0.77
2022-12-09T01:19:15.623Z,0.78
2022-12-09T01:20:15.217Z,0.77
2022-12-09T01:21:15.223Z,0.78
2022-12-09T01:22:15.461Z,0.76
2022-12-09T01:23:15.460Z,0.77
2022-12-09T01:24:15.347Z,0.76
2022-12-09T01:25:15.222Z,0.76
2022-12-09T01:26:15.449Z,0.76
2022-12-09T01:27:15.164Z,0.74
2022-12-09T01:28:15.153Z,0.74
2022-12-09T01:29:15.529Z,0.73
2022-12-09T01:30:15.385Z,0.71
2022-12-09T01:31:15.541Z,0.73
2022-12-09T01:32:15.355Z,0.71
2022-12-09T01:33:15.098Z,0.73
2022-12-09T01:34:15.130Z,0.71
2022-12-09T01:35:15.070Z,0.71
2022-12-09T01:36:15.158Z,0.70
2022-12-09T01:37:15.089Z,0.71
2022-12-09T01:38:15.024Z,0.68
2022-12-09T01:39:15.246Z,0.70
2022-12-09T01:40:15.004Z,0.70
2022-12-09T01:41:15.024Z,0.70
2022-12-09T01:42:15.022Z,0.70
2022-12-09T01:43:14.994Z,0.68
2022-12-09T01:44:15.000Z,0.66
2022-12-09T01:45:15.147Z,0.67
2022-12-09T01:46:15.019Z,0.68
2022-12-09T01:47:15.017Z,0.67
2022-12-09T01:48:15.179Z,0.67
2022-12-09T01:49:15.008Z,0.68
2022-12-09T01:50:14.909Z,0.68
2022-12-09T01:51:14.922Z,0.68
2022-12-09T01:52:15.221Z,0.67
2022-12-09T01:53:14.870Z,0.67
2022-12-09T01:54:15.048Z,0.68
2022-12-09T01:55:14.857Z,0.70
2022-12-09T01:56:15.053Z,0.70
2022-12-09T01:57:14.830Z,0.71
2022-12-09T01:58:14.976Z,0.71
2022-12-09T01:59:15.113Z,0.71
2022-12-09T02:00:15.073Z,0.71
2022-12-09T02:01:14.979Z,0.73
2022-12-09T02:02:14.807Z,0.71
2022-12-09T02:03:15.065Z,0.71
2022-12-09T02:04:15.131Z,0.67
2022-12-09T02:05:15.175Z,0.63
2022-12-09T02:06:14.900Z,0.61
2022-12-09T02:07:15.055Z,0.61
2022-12-09T02:08:14.759Z,0.66
2022-12-09T02:09:14.848Z,0.66
2022-12-09T02:10:14.682Z,0.67
2022-12-09T02:11:14.890Z,0.66
2022-12-09T02:12:14.738Z,0.67
2022-12-09T02:13:14.663Z,0.67
2022-12-09T02:14:14.664Z,0.64
2022-12-09T02:15:14.672Z,0.66
2022-12-09T02:16:14.903Z,0.63
2022-12-09T02:17:14.823Z,0.61
2022-12-09T02:18:14.582Z,0.59
2022-12-09T02:19:14.599Z,0.56
2022-12-09T02:20:14.613Z,0.51
2022-12-09T02:21:14.567Z,0.51
2022-12-09T02:22:14.559Z,0.47
2022-12-09T02:23:14.561Z,0.45
2022-12-09T02:24:14.670Z,0.44
2022-12-09T02:25:14.542Z,0.40
2022-12-09T02:26:14.559Z,0.39
2022-12-09T02:27:14.634Z,0.39
2022-12-09T02:28:14.529Z,0.40
2022-12-09T02:29:14.463Z,0.42
2022-12-09T02:30:14.459Z,0.44
2022-12-09T02:31:14.874Z,0.47
2022-12-09T02:32:14.626Z,0.47
2022-12-09T02:33:14.817Z,0.45
2022-12-09T02:34:14.738Z,0.45
2022-12-09T02:35:14.727Z,0.45
2022-12-09T02:36:14.434Z,0.47
2022-12-09T02:37:14.524Z,0.47
2022-12-09T02:38:14.507Z,0.47
2022-12-09T02:39:14.357Z,0.47
2022-12-09T02:40:14.360Z,0.47
2022-12-09T02:41:14.446Z,0.45
2022-12-09T02:42:14.367Z,0.44
2022-12-09T02:43:14.384Z,0.44
2022-12-09T02:44:14.394Z,0.42
2022-12-09T02:45:14.294Z,0.42
2022-12-09T02:46:14.618Z,0.40
2022-12-09T02:47:14.604Z,0.42
2022-12-09T02:48:14.372Z,0.40
2022-12-09T02:49:14.247Z,0.40
2022-12-09T02:50:14.690Z,0.37
2022-12-09T02:51:14.270Z,0.37
2022-12-09T02:52:14.271Z,0.36
2022-12-09T02:53:14.224Z,0.36
2022-12-09T02:54:14.268Z,0.33
2022-12-09T02:55:14.250Z,0.34
2022-12-09T02:56:14.324Z,0.34
2022-12-09T02:57:14.178Z,0.33
2022-12-09T02:58:14.166Z,0.33
2022-12-09T02:59:14.187Z,0.33
2022-12-09T03:00:14.431Z,0.33
2022-12-09T03:01:14.262Z,0.36
2022-12-09T03:02:14.338Z,0.37
2022-12-09T03:03:14.350Z,0.39
2022-12-09T03:04:14.237Z,0.37
2022-12-09T03:05:14.163Z,0.39
2022-12-09T03:06:14.462Z,0.39
2022-12-09T03:07:14.053Z,0.37
2022-12-09T03:08:14.291Z,0.36
2022-12-09T03:09:14.465Z,0.36
2022-12-09T03:10:14.106Z,0.34
2022-12-09T03:11:14.368Z,0.36
2022-12-09T03:12:14.006Z,0.34
2022-12-09T03:13:13.988Z,0.34
2022-12-09T03:14:14.055Z,0.31
2022-12-09T03:15:14.257Z,0.31
2022-12-09T03:16:14.084Z,0.31
2022-12-09T03:17:14.143Z,0.30
2022-12-09T03:18:14.302Z,0.31
2022-12-09T03:19:14.108Z,0.31
2022-12-09T03:20:14.396Z,0.29
2022-12-09T03:21:13.996Z,0.29
2022-12-09T03:22:14.221Z,0.29
2022-12-09T03:23:13.883Z,0.30
2022-12-09T03:24:13.885Z,0.31
2022-12-09T03:25:14.007Z,0.33
2022-12-09T03:26:14.104Z,0.31
2022-12-09T03:27:13.834Z,0.31
2022-12-09T03:28:13.840Z,0.31
2022-12-09T03:29:13.806Z,0.33
2022-12-09T03:30:14.211Z,0.31
2022-12-09T03:31:13.937Z,0.31
2022-12-09T03:32:14.028Z,0.31
2022-12-09T03:33:13.840Z,0.30
2022-12-09T03:34:13.787Z,0.31
2022-12-09T03:35:13.842Z,0.30
2022-12-09T03:36:13.764Z,0.30
2022-12-09T03:37:13.827Z,0.29
2022-12-09T03:38:14.040Z,0.27
2022-12-09T03:39:13.697Z,0.26
2022-12-09T03:40:14.509Z,0.24
2022-12-09T03:41:13.712Z,0.23
2022-12-09T03:42:13.686Z,0.20
2022-12-09T03:43:14.001Z,0.20
2022-12-09T03:44:13.920Z,0.20
2022-12-09T03:45:13.679Z,0.19
2022-12-09T03:46:13.815Z,0.19
2022-12-09T03:47:13.720Z,0.19
2022-12-09T03:48:13.892Z,0.18
2022-12-09T03:49:13.628Z,0.16
2022-12-09T03:50:13.593Z,0.16
2022-12-09T03:51:13.711Z,0.16
2022-12-09T03:52:13.572Z,0.18
2022-12-09T03:53:13.556Z,0.16
2022-12-09T03:54:14.534Z,0.15
2022-12-09T03:55:13.570Z,0.16
2022-12-09T03:56:13.649Z,0.13
2022-12-09T03:57:18.482Z,0.13
2022-12-09T03:58:13.789Z,0.15
2022-12-09T03:59:13.789Z,0.15
2022-12-09T04:00:13.957Z,0.15
2022-12-09T04:01:13.746Z,0.15
2022-12-09T04:02:13.631Z,0.13
2022-12-09T04:03:13.557Z,0.13
2022-12-09T04:04:13.751Z,0.11
2022-12-09T04:05:13.838Z,0.13
2022-12-09T04:06:13.421Z,0.13
2022-12-09T04:07:13.452Z,0.13
2022-12-09T04:08:13.769Z,0.11
2022-12-09T04:09:13.458Z,0.12
2022-12-09T04:10:13.652Z,0.11
2022-12-09T04:11:13.641Z,0.11
2022-12-09T04:12:13.481Z,0.09
2022-12-09T04:13:13.686Z,0.08
2022-12-09T04:14:15.793Z,0.09
2022-12-09T04:15:13.374Z,0.06
2022-12-09T04:16:13.355Z,0.08
2022-12-09T04:17:13.517Z,0.06
2022-12-09T04:18:13.371Z,0.08
2022-12-09T04:19:13.640Z,0.08
2022-12-09T04:20:13.661Z,0.08
2022-12-09T04:21:13.235Z,0.08
2022-12-09T04:22:13.452Z,0.06
2022-12-09T04:23:13.401Z,0.05
2022-12-09T04:24:13.579Z,0.06
2022-12-09T04:25:13.275Z,0.06
2022-12-09T04:26:13.542Z,0.08
2022-12-09T04:27:13.325Z,0.08
2022-12-09T04:28:13.306Z,0.05
2022-12-09T04:29:13.215Z,0.05
2022-12-09T04:30:13.728Z,0.02
2022-12-09T04:31:13.192Z,0.02
2022-12-09T04:32:13.534Z,0.01
2022-12-09T04:33:13.345Z,0.01
2022-12-09T04:34:13.408Z,0.00
2022-12-09T04:35:13.142Z,0.00
2022-12-09T04:36:13.097Z,-0.02
2022-12-09T04:37:13.259Z,-0.03
2022-12-09T04:38:13.094Z,-0.05
2022-12-09T04:39:13.400Z,-0.07
2022-12-09T04:40:18.197Z,-0.10
2022-12-09T04:41:13.170Z,-0.12
2022-12-09T04:42:13.108Z,-0.12
2022-12-09T04:43:13.345Z,-0.12
2022-12-09T04:44:13.049Z,-0.13
2022-12-09T04:45:13.226Z,-0.12
2022-12-09T04:46:13.048Z,-0.15
2022-12-09T04:47:13.413Z,-0.15
2022-12-09T04:48:12.958Z,-0.15
2022-12-09T04:49:13.099Z,-0.17
2022-12-09T04:50:13.768Z,-0.15
2022-12-09T04:51:13.089Z,-0.13
2022-12-09T04:52:13.120Z,-0.15
2022-12-09T04:53:12.894Z,-0.13
2022-12-09T04:54:13.098Z,-0.13
2022-12-09T04:55:13.197Z,-0.10
2022-12-09T04:56:12.967Z,-0.09
2022-12-09T04:57:13.144Z,-0.03
2022-12-09T04:58:13.076Z,-0.02
2022-12-09T04:59:12.906Z,0.01
2022-12-09T05:00:13.845Z,0.02
2022-12-09T05:01:13.099Z,0.06
2022-12-09T05:02:13.050Z,0.08
2022-12-09T05:03:12.937Z,0.11
2022-12-09T05:04:13.001Z,0.11
2022-12-09T05:05:13.127Z,0.13
2022-12-09T05:06:13.299Z,0.15
2022-12-09T05:07:13.127Z,0.16
2022-12-09T05:08:13.170Z,0.18
2022-12-09T05:09:13.262Z,0.19
2022-12-09T05:10:13.292Z,0.20
2022-12-09T05:11:12.836Z,0.23
2022-12-09T05:12:12.705Z,0.24
2022-12-09T05:13:13.022Z,0.26
2022-12-09T05:14:13.084Z,0.27
2022-12-09T05:15:12.762Z,0.30
2022-12-09T05:16:16.305Z,0.31
2022-12-09T05:17:13.018Z,0.34
2022-12-09T05:18:12.856Z,0.34
2022-12-09T05:19:13.659Z,0.37
2022-12-09T05:20:13.068Z,0.39
2022-12-09T05:21:13.078Z,0.40
2022-12-09T05:22:12.884Z,0.42
2022-12-09T05:23:12.576Z,0.42
2022-12-09T05:24:13.018Z,0.40
2022-12-09T05:25:12.711Z,0.40
2022-12-09T05:26:13.183Z,0.40
2022-12-09T05:27:12.619Z,0.42
2022-12-09T05:28:12.871Z,0.42
2022-12-09T05:29:16.598Z,0.40
2022-12-09T05:30:13.348Z,0.39
2022-12-09T05:31:12.624Z,0.40
2022-12-09T05:32:12.600Z,0.40
2022-12-09T05:33:12.550Z,0.44
2022-12-09T05:34:12.995Z,0.44
2022-12-09T05:35:12.641Z,0.45
2022-12-09T05:36:12.601Z,0.47
2022-12-09T05:37:12.425Z,0.49
2022-12-09T05:38:12.834Z,0.49
2022-12-09T05:39:12.768Z,0.55
2022-12-09T05:40:13.029Z,0.55
2022-12-09T05:41:12.810Z,0.56
2022-12-09T05:42:12.739Z,0.56
2022-12-09T05:43:12.653Z,0.56
2022-12-09T05:44:12.437Z,0.58
2022-12-09T05:45:12.605Z,0.58
2022-12-09T05:46:12.512Z,0.58
2022-12-09T05:47:12.741Z,0.55
2022-12-09T05:48:12.568Z,0.58
2022-12-09T05:49:12.786Z,0.55
2022-12-09T05:50:13.168Z,0.56
2022-12-09T05:51:12.417Z,0.58
2022-12-09T05:52:12.259Z,0.59
2022-12-09T05:53:15.146Z,0.59
2022-12-09T05:54:12.736Z,0.59
2022-12-09T05:55:12.640Z,0.61
2022-12-09T05:56:12.378Z,0.61
2022-12-09T05:57:12.432Z,0.61
2022-12-09T05:58:12.203Z,0.63
2022-12-09T05:59:12.231Z,0.63
2022-12-09T06:00:13.010Z,0.61
2022-12-09T06:01:12.534Z,0.63
2022-12-09T06:02:12.290Z,0.63
2022-12-09T06:03:12.280Z,0.64
2022-12-09T06:04:12.684Z,0.64
2022-12-09T06:05:12.474Z,0.66
2022-12-09T06:06:12.535Z,0.67
2022-12-09T06:07:12.360Z,0.67
2022-12-09T06:08:12.238Z,0.67
2022-12-09T06:09:12.482Z,0.67
2022-12-09T06:10:12.853Z,0.64
2022-12-09T06:11:12.218Z,0.66
2022-12-09T06:12:12.447Z,0.64
2022-12-09T06:13:12.218Z,0.66
2022-12-09T06:14:12.131Z,0.66
2022-12-09T06:15:15.624Z,0.67
2022-12-09T06:16:12.231Z,0.64
2022-12-09T06:17:12.314Z,0.61
2022-12-09T06:18:12.195Z,0.59
2022-12-09T06:19:12.166Z,0.59
2022-12-09T06:20:12.291Z,0.59
2022-12-09T06:21:12.158Z,0.59
2022-12-09T06:22:12.172Z,0.61
2022-12-09T06:23:11.956Z,0.59
2022-12-09T06:24:12.374Z,0.63
2022-12-09T06:25:12.672Z,0.61
2022-12-09T06:26:12.091Z,0.61
2022-12-09T06:27:12.231Z,0.61
2022-12-09T06:28:11.951Z,0.61
2022-12-09T06:29:18.051Z,0.63
2022-12-09T06:30:17.975Z,0.63
2022-12-09T06:31:18.147Z,0.64
2022-12-09T06:32:12.234Z,0.63
2022-12-09T06:33:36.816Z,0.63
2022-12-09T06:34:11.964Z,0.61
2022-12-09T06:35:12.481Z,0.59
2022-12-09T06:36:12.048Z,0.56
2022-12-09T06:37:12.098Z,0.55
2022-12-09T06:38:11.933Z,0.52
2022-12-09T06:39:11.979Z,0.55
2022-12-09T06:40:11.859Z,0.55
2022-12-09T06:41:11.844Z,0.55
2022-12-09T06:42:11.972Z,0.56
2022-12-09T06:43:11.742Z,0.56
2022-12-09T06:44:14.315Z,0.55
2022-12-09T06:45:12.915Z,0.56
2022-12-09T06:46:12.062Z,0.55
2022-12-09T06:47:11.908Z,0.55
2022-12-09T06:48:11.779Z,0.55
2022-12-09T06:49:11.892Z,0.56
2022-12-09T06:50:11.686Z,0.55
2022-12-09T06:51:12.105Z,0.52
2022-12-09T06:52:11.779Z,0.52
2022-12-09T06:53:11.904Z,0.51
2022-12-09T06:54:11.676Z,0.49
2022-12-09T06:55:12.736Z,0.47
2022-12-09T06:56:13.184Z,0.47
2022-12-09T06:57:11.553Z,0.45
2022-12-09T06:58:11.749Z,0.42
2022-12-09T06:59:11.899Z,0.42
2022-12-09T07:00:11.510Z,0.40
2022-12-09T07:01:11.625Z,0.40
2022-12-09T07:02:11.742Z,0.39
2022-12-09T07:03:11.939Z,0.40
2022-12-09T07:04:11.704Z,0.42
2022-12-09T07:05:12.135Z,0.42
2022-12-09T07:06:11.819Z,0.42
2022-12-09T07:07:12.011Z,0.45
2022-12-09T07:08:11.820Z,0.44
2022-12-09T07:09:11.599Z,0.44
2022-12-09T07:10:11.780Z,0.45
2022-12-09T07:11:11.791Z,0.48
2022-12-09T07:12:11.661Z,0.49
2022-12-09T07:13:11.539Z,0.48
2022-12-09T07:14:11.599Z,0.51
2022-12-09T07:15:12.150Z,0.52
2022-12-09T07:16:11.809Z,0.56
2022-12-09T07:17:11.427Z,0.59
2022-12-09T07:18:11.710Z,0.61
2022-12-09T07:19:11.844Z,0.63
2022-12-09T07:20:11.393Z,0.64
2022-12-09T07:21:11.351Z,0.67
2022-12-09T07:22:11.478Z,0.68
2022-12-09T07:23:11.514Z,0.70
2022-12-09T07:24:11.372Z,0.70
2022-12-09T07:25:11.574Z,0.70
2022-12-09T07:26:11.330Z,0.70
2022-12-09T07:27:18.645Z,0.71
2022-12-09T07:28:11.488Z,0.73
2022-12-09T07:29:11.247Z,0.73
2022-12-09T07:30:11.642Z,0.71
2022-12-09T07:31:11.274Z,0.70
2022-12-09T07:32:11.659Z,0.73
2022-12-09T07:33:11.502Z,0.73
2022-12-09T07:34:11.737Z,0.70
2022-12-09T07:35:11.423Z,0.71
2022-12-09T07:36:13.519Z,0.71
2022-12-09T07:37:11.475Z,0.71
2022-12-09T07:38:11.533Z,0.71
2022-12-09T07:39:11.473Z,0.74
2022-12-09T07:40:11.219Z,0.73
2022-12-09T07:41:11.237Z,0.74
2022-12-09T07:42:12.067Z,0.74
2022-12-09T07:43:11.193Z,0.74
2022-12-09T07:44:11.206Z,0.76
2022-12-09T07:45:11.408Z,0.76
2022-12-09T07:46:11.394Z,0.76
2022-12-09T07:47:11.142Z,0.76
2022-12-09T07:48:11.317Z,0.76
2022-12-09T07:49:11.181Z,0.74
2022-12-09T07:50:11.140Z,0.76
2022-12-09T07:51:11.004Z,0.74
2022-12-09T07:52:10.987Z,0.73
2022-12-09T07:53:11.181Z,0.71
2022-12-09T07:54:11.137Z,0.70
2022-12-09T07:55:11.543Z,0.68
2022-12-09T07:56:11.163Z,0.71
2022-12-09T07:57:11.275Z,0.71
2022-12-09T07:58:11.257Z,0.68
2022-12-09T07:59:11.035Z,0.70
2022-12-09T08:00:10.965Z,0.70
2022-12-09T08:01:10.899Z,0.70
2022-12-09T08:02:11.235Z,0.74
2022-12-09T08:03:11.006Z,0.74
2022-12-09T08:04:11.370Z,0.77
2022-12-09T08:05:11.901Z,0.78
2022-12-09T08:06:10.960Z,0.85
2022-12-09T08:07:13.268Z,0.88
2022-12-09T08:08:11.161Z,0.89
2022-12-09T08:09:11.291Z,0.91
2022-12-09T08:10:10.905Z,0.94
2022-12-09T08:11:11.063Z,0.95
2022-12-09T08:12:10.962Z,0.99
2022-12-09T08:13:11.031Z,1.00
2022-12-09T08:14:12.627Z,1.02
2022-12-09T08:15:11.006Z,1.03
2022-12-09T08:16:10.794Z,1.03
2022-12-09T08:17:11.279Z,1.04
2022-12-09T08:18:11.226Z,1.07
2022-12-09T08:19:11.227Z,1.06
2022-12-09T08:20:11.180Z,1.07
2022-12-09T08:21:11.048Z,1.09
2022-12-09T08:22:10.682Z,1.07
2022-12-09T08:23:11.025Z,1.07
2022-12-09T08:24:11.090Z,1.07
2022-12-09T08:25:11.373Z,1.07
2022-12-09T08:26:11.149Z,1.09
2022-12-09T08:27:10.705Z,1.09
2022-12-09T08:28:10.988Z,1.09
2022-12-09T08:29:11.085Z,1.12
2022-12-09T08:30:11.513Z,1.10
2022-12-09T08:31:11.383Z,1.12
2022-12-09T08:32:11.289Z,1.14
2022-12-09T08:33:10.547Z,1.14
2022-12-09T08:34:11.146Z,1.14
2022-12-09T08:35:11.097Z,1.18
2022-12-09T08:36:10.907Z,1.21
2022-12-09T08:37:10.503Z,1.22
2022-12-09T08:38:10.815Z,1.25
2022-12-09T08:39:10.923Z,1.27
2022-12-09T08:40:10.704Z,1.28
2022-12-09T08:41:10.557Z,1.30
2022-12-09T08:42:10.433Z,1.30
2022-12-09T08:43:10.804Z,1.28
2022-12-09T08:44:10.582Z,1.27
2022-12-09T08:45:10.722Z,1.27
2022-12-09T08:46:10.629Z,1.25
2022-12-09T08:47:10.738Z,1.25
2022-12-09T08:48:10.527Z,1.24
2022-12-09T08:49:10.955Z,1.24
2022-12-09T08:50:11.290Z,1.24
2022-12-09T08:51:10.605Z,1.24
2022-12-09T08:52:10.272Z,1.24
2022-12-09T08:53:10.631Z,1.24
2022-12-09T08:54:10.710Z,1.25
2022-12-09T08:55:10.741Z,1.24
2022-12-09T08:56:10.447Z,1.25
2022-12-09T08:57:10.697Z,1.27
2022-12-09T08:58:10.468Z,1.25
2022-12-09T08:59:10.427Z,1.25
2022-12-09T09:00:10.822Z,1.28
2022-12-09T09:01:10.567Z,1.27
2022-12-09T09:02:10.755Z,1.30
2022-12-09T09:03:10.623Z,1.34
2022-12-09T09:04:10.688Z,1.39
2022-12-09T09:05:10.544Z,1.38
2022-12-09T09:06:11.197Z,1.39
2022-12-09T09:07:10.694Z,1.42
2022-12-09T09:08:10.429Z,1.43
2022-12-09T09:09:10.739Z,1.45
2022-12-09T09:10:10.578Z,1.48
2022-12-09T09:11:10.445Z,1.50
2022-12-09T09:12:10.185Z,1.50
2022-12-09T09:13:10.329Z,1.53
2022-12-09T09:14:10.197Z,1.56
2022-12-09T09:15:10.566Z,1.57
2022-12-09T09:16:10.401Z,1.61
2022-12-09T09:17:10.215Z,1.63
2022-12-09T09:18:10.269Z,1.64
2022-12-09T09:19:10.500Z,1.67
2022-12-09T09:20:10.872Z,1.70
2022-12-09T09:21:10.421Z,1.74
2022-12-09T09:22:10.002Z,1.78
2022-12-09T09:23:10.104Z,1.79
2022-12-09T09:24:10.452Z,1.84
2022-12-09T09:25:10.689Z,1.88
2022-12-09T09:26:09.932Z,1.92
2022-12-09T09:27:10.347Z,1.95
2022-12-09T09:28:10.074Z,1.98
2022-12-09T09:29:11.135Z,2.01
2022-12-09T09:30:10.673Z,2.04
2022-12-09T09:31:10.239Z,2.03
2022-12-09T09:32:09.989Z,2.04
2022-12-09T09:33:10.386Z,2.05
2022-12-09T09:34:10.194Z,2.04
2022-12-09T09:35:10.265Z,2.05
2022-12-09T09:36:10.710Z,2.04
2022-12-09T09:37:10.143Z,2.01
2022-12-09T09:38:10.097Z,2.01
2022-12-09T09:39:09.953Z,1.97
2022-12-09T09:40:10.521Z,1.93
2022-12-09T09:41:10.132Z,1.93
2022-12-09T09:42:09.858Z,1.95
2022-12-09T09:43:09.759Z,2.00
2022-12-09T09:44:09.740Z,2.03
2022-12-09T09:45:09.981Z,2.04
2022-12-09T09:46:10.120Z,2.04
2022-12-09T09:47:10.023Z,2.03
2022-12-09T09:48:09.842Z,2.00
2022-12-09T09:49:09.766Z,1.95
2022-12-09T09:50:10.664Z,1.95
2022-12-09T09:51:10.493Z,1.98
2022-12-09T09:52:10.188Z,2.00
2022-12-09T09:53:09.727Z,1.98
2022-12-09T09:54:10.005Z,1.98
2022-12-09T09:55:09.776Z,1.95
2022-12-09T09:56:09.657Z,1.95
2022-12-09T09:57:10.161Z,1.93
2022-12-09T09:58:09.839Z,1.89
2022-12-09T09:59:09.804Z,1.88
2022-12-09T10:00:11.080Z,1.93
2022-12-09T10:01:09.790Z,1.93
2022-12-09T10:02:09.762Z,1.97
2022-12-09T10:03:10.396Z,1.97
2022-12-09T10:04:09.925Z,2.00
2022-12-09T10:05:10.120Z,2.07
2022-12-09T10:06:09.803Z,2.14
2022-12-09T10:07:11.492Z,2.15
2022-12-09T10:08:09.765Z,2.22
2022-12-09T10:09:09.615Z,2.25
2022-12-09T10:10:10.308Z,2.28
2022-12-09T10:11:10.085Z,2.30
2022-12-09T10:12:09.793Z,2.33
2022-12-09T10:13:16.120Z,2.37
2022-12-09T10:14:09.967Z,2.40
2022-12-09T10:15:09.821Z,2.43
2022-12-09T10:16:09.811Z,2.43
2022-12-09T10:17:09.609Z,2.47
2022-12-09T10:18:09.631Z,2.46
2022-12-09T10:19:09.877Z,2.51
2022-12-09T10:20:09.772Z,2.51
2022-12-09T10:21:09.703Z,2.50
2022-12-09T10:22:09.666Z,2.46
2022-12-09T10:23:09.554Z,2.47
2022-12-09T10:24:09.548Z,2.51
2022-12-09T10:25:09.857Z,2.55
2022-12-09T10:26:09.535Z,2.59
2022-12-09T10:27:09.697Z,2.65
2022-12-09T10:28:09.501Z,2.72
2022-12-09T10:29:09.563Z,2.77
2022-12-09T10:30:10.336Z,2.82
2022-12-09T10:31:09.428Z,2.83
2022-12-09T10:32:10.536Z,2.87
2022-12-09T10:33:09.586Z,2.87
2022-12-09T10:34:09.605Z,2.91
2022-12-09T10:35:09.570Z,2.94
2022-12-09T10:36:09.218Z,3.00
2022-12-09T10:37:09.724Z,2.95
2022-12-09T10:38:09.678Z,2.97
2022-12-09T10:39:09.238Z,2.94
2022-12-09T10:40:09.686Z,2.91
2022-12-09T10:41:09.236Z,2.97
2022-12-09T10:42:09.708Z,3.01
2022-12-09T10:43:09.493Z,3.05
2022-12-09T10:44:09.165Z,3.08
2022-12-09T10:45:09.387Z,3.03
2022-12-09T10:46:17.733Z,3.01
2022-12-09T10:47:09.594Z,2.98
2022-12-09T10:48:09.335Z,2.95
2022-12-09T10:49:09.768Z,2.94
2022-12-09T10:50:09.988Z,2.91
2022-12-09T10:51:09.563Z,2.93
2022-12-09T10:52:09.324Z,2.91
2022-12-09T10:53:09.094Z,2.90
2022-12-09T10:54:09.099Z,2.88
2022-12-09T10:55:09.220Z,2.83
2022-12-09T10:56:09.266Z,2.83
2022-12-09T10:57:09.714Z,2.88
2022-12-09T10:58:09.079Z,2.87
2022-12-09T10:59:08.998Z,2.88
2022-12-09T11:00:09.561Z,2.91
2022-12-09T11:01:08.980Z,2.94
2022-12-09T11:02:09.099Z,2.97
2022-12-09T11:03:09.238Z,2.98
2022-12-09T11:04:09.027Z,3.03
2022-12-09T11:05:09.037Z,3.05
2022-12-09T11:06:09.271Z,3.09
2022-12-09T11:07:09.381Z,3.09
2022-12-09T11:08:09.063Z,3.09
2022-12-09T11:09:09.335Z,3.05
2022-12-09T11:10:09.649Z,2.98
2022-12-09T11:11:09.366Z,2.95
2022-12-09T11:12:09.289Z,2.90
2022-12-09T11:13:09.005Z,2.88
2022-12-09T11:14:08.842Z,2.90
2022-12-09T11:15:09.002Z,2.88
2022-12-09T11:16:09.058Z,2.93
2022-12-09T11:17:09.047Z,2.93
2022-12-09T11:18:08.939Z,2.95
2022-12-09T11:19:09.150Z,2.98
2022-12-09T11:20:09.879Z,3.05
2022-12-09T11:21:08.851Z,3.11
2022-12-09T11:22:08.677Z,3.16
2022-12-09T11:23:09.187Z,3.24
2022-12-09T11:24:09.657Z,3.31
2022-12-09T11:25:08.755Z,3.30
2022-12-09T11:26:09.088Z,3.36
2022-12-09T11:27:09.664Z,3.40
2022-12-09T11:28:08.731Z,3.46
2022-12-09T11:29:08.820Z,3.48
2022-12-09T11:30:13.181Z,3.53
2022-12-09T11:32:08.801Z,3.70
2022-12-09T11:33:09.044Z,3.71
2022-12-09T11:34:09.068Z,3.68
2022-12-09T11:35:08.699Z,3.70
2022-12-09T11:37:08.485Z,3.67
2022-12-09T11:38:08.535Z,3.61
2022-12-09T11:39:08.500Z,3.58
2022-12-09T11:40:08.723Z,3.56
2022-12-09T11:41:08.465Z,3.58
2022-12-09T11:42:16.091Z,3.56
2022-12-09T11:43:08.432Z,3.50
2022-12-09T11:44:08.433Z,3.46
2022-12-09T11:45:08.401Z,3.48
2022-12-09T11:46:08.507Z,3.46
2022-12-09T11:47:08.449Z,3.55
2022-12-09T11:48:32.593Z,3.55
2022-12-09T11:49:08.409Z,3.45
2022-12-09T11:50:09.158Z,3.31
2022-12-09T11:51:08.404Z,3.30
2022-12-09T11:52:08.346Z,3.27
2022-12-09T11:53:08.417Z,3.27
2022-12-09T11:54:08.298Z,3.24
2022-12-09T11:55:08.371Z,3.27
2022-12-09T11:56:08.303Z,3.30
2022-12-09T11:57:08.270Z,3.31
2022-12-09T11:58:08.309Z,3.30
2022-12-09T11:59:08.848Z,3.26
2022-12-09T12:00:08.588Z,3.21
2022-12-09T12:01:08.304Z,3.18
2022-12-09T12:02:08.316Z,3.15
2022-12-09T12:03:08.294Z,3.08
2022-12-09T12:04:08.501Z,3.05
2022-12-09T12:05:08.261Z,3.05
2022-12-09T12:06:08.189Z,3.08
2022-12-09T12:07:08.344Z,3.12
2022-12-09T12:08:08.391Z,3.13
2022-12-09T12:09:08.172Z,3.18
2022-12-09T12:10:08.453Z,3.18
2022-12-09T12:11:13.437Z,3.13
2022-12-09T12:12:08.147Z,3.13
2022-12-09T12:13:08.239Z,3.11
2022-12-09T12:14:08.073Z,3.09
2022-12-09T12:15:08.049Z,3.09
2022-12-09T12:16:08.206Z,3.09
2022-12-09T12:17:08.291Z,3.13
2022-12-09T12:18:08.043Z,3.15
2022-12-09T12:19:08.103Z,3.21
2022-12-09T12:20:08.334Z,3.26
2022-12-09T12:21:07.971Z,3.21
2022-12-09T12:22:07.970Z,3.26
2022-12-09T12:23:08.076Z,3.22
2022-12-09T12:24:08.025Z,3.24
2022-12-09T12:25:12.482Z,3.24
2022-12-09T12:26:07.980Z,3.22
2022-12-09T12:27:07.975Z,3.19
2022-12-09T12:28:08.008Z,3.19
2022-12-09T12:29:08.508Z,3.19
2022-12-09T12:30:08.111Z,3.16
2022-12-09T12:31:07.850Z,3.21
2022-12-09T12:32:08.134Z,3.26
2022-12-09T12:34:24.042Z,3.26
2022-12-09T12:35:08.093Z,3.21
2022-12-09T12:36:07.883Z,3.22
2022-12-09T12:37:07.839Z,3.24
2022-12-09T12:38:07.903Z,3.29
2022-12-09T12:39:07.875Z,3.29
2022-12-09T12:40:08.122Z,3.27
2022-12-09T12:41:07.829Z,3.22
2022-12-09T12:42:07.840Z,3.22
2022-12-09T12:43:07.940Z,3.24
2022-12-09T12:44:07.919Z,3.24
2022-12-09T12:45:07.709Z,3.29
2022-12-09T12:46:07.853Z,3.29
2022-12-09T12:47:07.806Z,3.24
2022-12-09T12:48:07.771Z,3.27
2022-12-09T12:49:07.723Z,3.22
2022-12-09T12:50:08.011Z,3.24
2022-12-09T12:51:07.658Z,3.19
2022-12-09T12:52:12.742Z,3.19
2022-12-09T12:53:07.640Z,3.18
2022-12-09T12:54:07.629Z,3.16
2022-12-09T12:55:07.664Z,3.15
2022-12-09T12:56:08.579Z,3.16
2022-12-09T12:57:10.126Z,3.16
2022-12-09T12:58:07.671Z,3.16
2022-12-09T12:59:07.684Z,3.19
2022-12-09T13:00:07.981Z,3.24
2022-12-09T13:01:08.980Z,3.22
2022-12-09T13:02:07.736Z,3.18
2022-12-09T13:03:09.378Z,3.18
2022-12-09T13:04:07.660Z,3.22
2022-12-09T13:05:07.506Z,3.21
2022-12-09T13:06:07.509Z,3.22
2022-12-09T13:07:07.545Z,3.24
2022-12-09T13:08:07.627Z,3.29
2022-12-09T13:09:07.443Z,3.33
2022-12-09T13:10:07.856Z,3.36
2022-12-09T13:11:07.482Z,3.49
2022-12-09T13:12:07.491Z,3.74
2022-12-09T13:13:07.516Z,3.86
2022-12-09T13:14:07.596Z,3.84
2022-12-09T13:15:07.368Z,4.04
2022-12-09T13:16:07.513Z,4.82
2022-12-09T13:17:07.384Z,5.72
2022-12-09T13:18:07.456Z,6.29
2022-12-09T13:19:07.393Z,6.65
2022-12-09T13:20:07.817Z,7.04